sensor_id;sensor_type;location;lat;lon;timestamp;pressure;altitude;pressure_sealevel;temperature;humidity
66857;BME280;53766;50.280;19.160;2023-04-02T00:01:24;97364.97;;;17.49;48.81
66857;BME280;53766;50.280;19.160;2023-04-02T00:06:35;97367.66;;;17.49;48.82
66857;BME280;53766;50.280;19.160;2023-04-02T00:11:48;97372.97;;;17.49;48.76
66857;BME280;53766;50.280;19.160;2023-04-02T00:16:54;97380.97;;;17.49;48.92
66857;BME280;53766;50.280;19.160;2023-04-02T00:19:50;97375.63;;;17.49;48.94
66857;BME280;53766;50.280;19.160;2023-04-02T00:22:23;97380.16;;;17.48;48.84
66857;BME280;53766;50.280;19.160;2023-04-02T00:24:53;97374.81;;;17.48;48.85
66857;BME280;53766;50.280;19.160;2023-04-02T00:27:21;97380.97;;;17.49;48.80
66857;BME280;53766;50.280;19.160;2023-04-02T00:29:54;97383.63;;;17.49;48.73
66857;BME280;53766;50.280;19.160;2023-04-02T00:32:28;97379.31;;;17.48;48.89
66857;BME280;53766;50.280;19.160;2023-04-02T00:34:57;97376.66;;;17.48;48.84
66857;BME280;53766;50.280;19.160;2023-04-02T00:37:27;97378.50;;;17.47;48.81
66857;BME280;53766;50.280;19.160;2023-04-02T00:40:08;97378.50;;;17.47;48.92
66857;BME280;53766;50.280;19.160;2023-04-02T00:42:37;97378.50;;;17.47;48.89
66857;BME280;53766;50.280;19.160;2023-04-02T00:45:16;97392.63;;;17.48;48.82
66857;BME280;53766;50.280;19.160;2023-04-02T00:47:45;97383.03;;;17.47;48.93
66857;BME280;53766;50.280;19.160;2023-04-02T00:52:43;97380.38;;;17.47;48.88
66857;BME280;53766;50.280;19.160;2023-04-02T00:55:26;97384.63;;;17.48;48.90
66857;BME280;53766;50.280;19.160;2023-04-02T00:58:00;97388.34;;;17.47;48.93
66857;BME280;53766;50.280;19.160;2023-04-02T01:05:50;97393.69;;;17.47;48.91
66857;BME280;53766;50.280;19.160;2023-04-02T01:13:46;97400.00;;;17.46;48.92
66857;BME280;53766;50.280;19.160;2023-04-02T01:24:20;97403.50;;;17.46;48.72
66857;BME280;53766;50.280;19.160;2023-04-02T01:26:57;97406.19;;;17.46;48.87
66857;BME280;53766;50.280;19.160;2023-04-02T01:29:26;97405.34;;;17.46;48.84
66857;BME280;53766;50.280;19.160;2023-04-02T01:31:59;97401.88;;;17.45;48.88
66857;BME280;53766;50.280;19.160;2023-04-02T01:34:28;97403.72;;;17.45;48.96
66857;BME280;53766;50.280;19.160;2023-04-02T01:45:41;97405.59;;;17.44;48.79
66857;BME280;53766;50.280;19.160;2023-04-02T01:48:15;97410.06;;;17.44;48.84
66857;BME280;53766;50.280;19.160;2023-04-02T01:50:44;97409.06;;;17.45;49.04
66857;BME280;53766;50.280;19.160;2023-04-02T01:53:15;97404.75;;;17.44;48.97
66857;BME280;53766;50.280;19.160;2023-04-02T01:55:45;97410.06;;;17.44;48.86
66857;BME280;53766;50.280;19.160;2023-04-02T01:58:21;97410.66;;;17.46;49.14
66857;BME280;53766;50.280;19.160;2023-04-02T02:01:02;97412.72;;;17.44;49.03
66857;BME280;53766;50.280;19.160;2023-04-02T02:03:33;97409.25;;;17.43;48.86
66857;BME280;53766;50.280;19.160;2023-04-02T02:06:01;97410.06;;;17.44;48.91
66857;BME280;53766;50.280;19.160;2023-04-02T02:08:51;97417.03;;;17.45;48.87
66857;BME280;53766;50.280;19.160;2023-04-02T02:11:23;97420.72;;;17.44;48.91
66857;BME280;53766;50.280;19.160;2023-04-02T02:14:04;97412.72;;;17.44;48.86
66857;BME280;53766;50.280;19.160;2023-04-02T02:16:34;97424.44;;;17.43;48.96
66857;BME280;53766;50.280;19.160;2023-04-02T02:19:25;97419.09;;;17.43;48.85
66857;BME280;53766;50.280;19.160;2023-04-02T02:22:01;97421.78;;;17.43;48.94
66857;BME280;53766;50.280;19.160;2023-04-02T02:24:33;97420.72;;;17.44;48.75
66857;BME280;53766;50.280;19.160;2023-04-02T02:29:41;97432.41;;;17.43;48.84
66857;BME280;53766;50.280;19.160;2023-04-02T02:32:12;97435.06;;;17.43;48.82
66857;BME280;53766;50.280;19.160;2023-04-02T02:34:46;97431.59;;;17.42;49.00
66857;BME280;53766;50.280;19.160;2023-04-02T02:37:21;97431.59;;;17.42;48.89
66857;BME280;53766;50.280;19.160;2023-04-02T02:39:55;97443.06;;;17.43;48.95
66857;BME280;53766;50.280;19.160;2023-04-02T02:44:54;97449.41;;;17.42;48.99
66857;BME280;53766;50.280;19.160;2023-04-02T02:47:33;97453.72;;;17.43;48.97
66857;BME280;53766;50.280;19.160;2023-04-02T02:50:05;97451.03;;;17.43;48.97
66857;BME280;53766;50.280;19.160;2023-04-02T02:52:36;97442.47;;;17.41;48.98
66857;BME280;53766;50.280;19.160;2023-04-02T02:55:10;97438.75;;;17.42;49.02
66857;BME280;53766;50.280;19.160;2023-04-02T02:57:40;97449.41;;;17.42;49.02
66857;BME280;53766;50.280;19.160;2023-04-02T03:00:11;97449.41;;;17.42;49.00
66857;BME280;53766;50.280;19.160;2023-04-02T03:02:40;97450.25;;;17.42;48.84
66857;BME280;53766;50.280;19.160;2023-04-02T03:05:09;97449.41;;;17.42;48.91
66857;BME280;53766;50.280;19.160;2023-04-02T03:07:42;97455.56;;;17.42;48.86
66857;BME280;53766;50.280;19.160;2023-04-02T03:10:20;97453.13;;;17.41;48.83
66857;BME280;53766;50.280;19.160;2023-04-02T03:13:00;97458.44;;;17.41;48.89
66857;BME280;53766;50.280;19.160;2023-04-02T03:21:14;97461.09;;;17.41;48.93
66857;BME280;53766;50.280;19.160;2023-04-02T03:23:52;97471.75;;;17.41;48.89
66857;BME280;53766;50.280;19.160;2023-04-02T03:26:33;97465.63;;;17.40;48.90
66857;BME280;53766;50.280;19.160;2023-04-02T03:29:12;97468.28;;;17.40;49.07
66857;BME280;53766;50.280;19.160;2023-04-02T03:31:56;97469.09;;;17.41;48.94
66857;BME280;53766;50.280;19.160;2023-04-02T03:37:21;97472.78;;;17.40;48.81
66857;BME280;53766;50.280;19.160;2023-04-02T03:39:57;97472.78;;;17.40;48.88
66857;BME280;53766;50.280;19.160;2023-04-02T03:42:35;97479.72;;;17.41;48.88
66857;BME280;53766;50.280;19.160;2023-04-02T03:45:21;97487.13;;;17.39;48.84
66857;BME280;53766;50.280;19.160;2023-04-02T03:50:36;97486.09;;;17.40;48.93
66857;BME280;53766;50.280;19.160;2023-04-02T03:53:08;97487.94;;;17.39;48.91
66857;BME280;53766;50.280;19.160;2023-04-02T03:55:37;97496.75;;;17.40;48.89
66857;BME280;53766;50.280;19.160;2023-04-02T04:00:58;97500.44;;;17.39;48.98
66857;BME280;53766;50.280;19.160;2023-04-02T04:06:04;97500.44;;;17.39;48.84
66857;BME280;53766;50.280;19.160;2023-04-02T04:08:38;97508.41;;;17.39;48.91
66857;BME280;53766;50.280;19.160;2023-04-02T04:11:13;97508.41;;;17.39;48.90
66857;BME280;53766;50.280;19.160;2023-04-02T04:14:01;97519.06;;;17.39;49.00
66857;BME280;53766;50.280;19.160;2023-04-02T04:16:42;97509.47;;;17.38;49.02
66857;BME280;53766;50.280;19.160;2023-04-02T04:19:21;97516.41;;;17.39;48.76
66857;BME280;53766;50.280;19.160;2023-04-02T04:21:52;97517.44;;;17.38;49.09
66857;BME280;53766;50.280;19.160;2023-04-02T04:24:26;97528.09;;;17.38;48.99
66857;BME280;53766;50.280;19.160;2023-04-02T04:27:03;97522.78;;;17.38;48.97
66857;BME280;53766;50.280;19.160;2023-04-02T04:29:58;97522.78;;;17.38;48.95
66857;BME280;53766;50.280;19.160;2023-04-02T04:32:42;97528.09;;;17.38;48.78
66857;BME280;53766;50.280;19.160;2023-04-02T04:35:29;97531.78;;;17.37;48.99
66857;BME280;53766;50.280;19.160;2023-04-02T04:40:54;97537.91;;;17.37;48.85
66857;BME280;53766;50.280;19.160;2023-04-02T04:46:18;97544.06;;;17.38;48.83
66857;BME280;53766;50.280;19.160;2023-04-02T04:48:55;97539.53;;;17.38;48.98
66857;BME280;53766;50.280;19.160;2023-04-02T04:51:50;97547.31;;;17.40;48.92
66857;BME280;53766;50.280;19.160;2023-04-02T04:54:24;97543.81;;;17.39;48.94
66857;BME280;53766;50.280;19.160;2023-04-02T04:57:02;97548.34;;;17.39;48.92
66857;BME280;53766;50.280;19.160;2023-04-02T04:59:46;97554.47;;;17.39;48.79
66857;BME280;53766;50.280;19.160;2023-04-02T05:02:22;97558.78;;;17.40;48.81
66857;BME280;53766;50.280;19.160;2023-04-02T05:04:51;97563.28;;;17.40;48.79
66857;BME280;53766;50.280;19.160;2023-04-02T05:07:24;97562.44;;;17.39;48.80
66857;BME280;53766;50.280;19.160;2023-04-02T05:15:29;97565.34;;;17.38;48.50
66857;BME280;53766;50.280;19.160;2023-04-02T05:21:02;97576.00;;;17.38;48.77
66857;BME280;53766;50.280;19.160;2023-04-02T05:26:21;97586.66;;;17.38;48.70
66857;BME280;53766;50.280;19.160;2023-04-02T05:31:46;97590.31;;;17.37;48.55
66857;BME280;53766;50.280;19.160;2023-04-02T05:34:25;97587.66;;;17.37;48.75
66857;BME280;53766;50.280;19.160;2023-04-02T05:36:54;97599.97;;;17.38;48.69
66857;BME280;53766;50.280;19.160;2023-04-02T05:39:23;97602.63;;;17.38;48.56
66857;BME280;53766;50.280;19.160;2023-04-02T05:42:04;97600.97;;;17.37;48.60
66857;BME280;53766;50.280;19.160;2023-04-02T05:44:37;97610.59;;;17.38;48.57
66857;BME280;53766;50.280;19.160;2023-04-02T05:47:22;97618.59;;;17.38;48.69
66857;BME280;53766;50.280;19.160;2023-04-02T05:52:40;97624.94;;;17.37;48.51
66857;BME280;53766;50.280;19.160;2023-04-02T05:57:46;97629.66;;;17.35;48.63
66857;BME280;53766;50.280;19.160;2023-04-02T06:03:37;97640.28;;;17.35;48.69
66857;BME280;53766;50.280;19.160;2023-04-02T06:06:14;97645.63;;;17.35;48.60
66857;BME280;53766;50.280;19.160;2023-04-02T06:08:49;97644.00;;;17.34;48.55
66857;BME280;53766;50.280;19.160;2023-04-02T06:11:29;97649.31;;;17.34;48.46
66857;BME280;53766;50.280;19.160;2023-04-02T06:13:58;97649.31;;;17.34;48.54
66857;BME280;53766;50.280;19.160;2023-04-02T06:16:28;97657.31;;;17.34;48.36
66857;BME280;53766;50.280;19.160;2023-04-02T06:18:57;97658.31;;;17.33;48.54
66857;BME280;53766;50.280;19.160;2023-04-02T06:21:25;97663.66;;;17.33;48.52
66857;BME280;53766;50.280;19.160;2023-04-02T06:24:00;97678.00;;;17.32;48.41
66857;BME280;53766;50.280;19.160;2023-04-02T06:26:33;97683.31;;;17.32;48.49
66857;BME280;53766;50.280;19.160;2023-04-02T06:29:19;97684.34;;;17.31;48.44
66857;BME280;53766;50.280;19.160;2023-04-02T06:31:54;97687.00;;;17.31;48.50
66857;BME280;53766;50.280;19.160;2023-04-02T06:34:25;97692.31;;;17.31;48.47
66857;BME280;53766;50.280;19.160;2023-04-02T06:36:59;97702.56;;;17.34;48.68
66857;BME280;53766;50.280;19.160;2023-04-02T06:39:27;97698.84;;;17.35;48.57
66857;BME280;53766;50.280;19.160;2023-04-02T06:41:59;97708.03;;;17.39;48.53
66857;BME280;53766;50.280;19.160;2023-04-02T06:44:33;97721.34;;;17.39;48.55
66857;BME280;53766;50.280;19.160;2023-04-02T06:52:49;97733.38;;;17.48;48.68
66857;BME280;53766;50.280;19.160;2023-04-02T06:58:08;97740.09;;;17.51;48.92
66857;BME280;53766;50.280;19.160;2023-04-02T07:00:39;97753.22;;;17.52;48.77
66857;BME280;53766;50.280;19.160;2023-04-02T07:03:14;97758.53;;;17.52;48.97
66857;BME280;53766;50.280;19.160;2023-04-02T07:05:42;97764.25;;;17.56;48.99
66857;BME280;53766;50.280;19.160;2023-04-02T07:08:10;97759.94;;;17.55;49.06
66857;BME280;53766;50.280;19.160;2023-04-02T07:10:38;97770.38;;;17.56;49.15
66857;BME280;53766;50.280;19.160;2023-04-02T07:13:05;97766.72;;;17.57;49.02
66857;BME280;53766;50.280;19.160;2023-04-02T07:15:33;97770.78;;;17.60;49.07
66857;BME280;53766;50.280;19.160;2023-04-02T07:18:01;97778.53;;;17.61;49.14
66857;BME280;53766;50.280;19.160;2023-04-02T07:20:32;97783.66;;;17.63;49.18
66857;BME280;53766;50.280;19.160;2023-04-02T07:22:59;97788.78;;;17.64;49.14
66857;BME280;53766;50.280;19.160;2023-04-02T07:25:27;97794.47;;;17.68;49.18
66857;BME280;53766;50.280;19.160;2023-04-02T07:27:56;97797.13;;;17.68;49.20
66857;BME280;53766;50.280;19.160;2023-04-02T07:30:23;97801.41;;;17.76;49.17
66857;BME280;53766;50.280;19.160;2023-04-02T07:32:51;97809.19;;;17.77;49.28
66857;BME280;53766;50.280;19.160;2023-04-02T07:35:18;97810.00;;;17.78;49.27
66857;BME280;53766;50.280;19.160;2023-04-02T07:37:46;97813.66;;;17.77;49.25
66857;BME280;53766;50.280;19.160;2023-04-02T07:40:17;97825.53;;;17.81;49.27
66857;BME280;53766;50.280;19.160;2023-04-02T07:42:45;97827.81;;;17.84;49.29
66857;BME280;53766;50.280;19.160;2023-04-02T07:45:13;97833.75;;;17.86;49.24
66857;BME280;53766;50.280;19.160;2023-04-02T07:47:41;97840.69;;;17.87;49.37
66857;BME280;53766;50.280;19.160;2023-04-02T07:50:09;97842.34;;;17.88;49.40
66857;BME280;53766;50.280;19.160;2023-04-02T07:52:40;97857.88;;;17.91;49.31
66857;BME280;53766;50.280;19.160;2023-04-02T07:55:10;97857.69;;;17.93;49.31
66857;BME280;53766;50.280;19.160;2023-04-02T07:57:49;97864.41;;;17.95;49.37
66857;BME280;53766;50.280;19.160;2023-04-02T08:00:17;97863.38;;;17.96;49.29
66857;BME280;53766;50.280;19.160;2023-04-02T08:02:45;97867.69;;;17.97;49.37
66857;BME280;53766;50.280;19.160;2023-04-02T08:05:14;97874.63;;;17.98;49.40
66857;BME280;53766;50.280;19.160;2023-04-02T08:07:41;97885.28;;;17.98;49.33
66857;BME280;53766;50.280;19.160;2023-04-02T08:10:11;97877.91;;;18.00;49.35
66857;BME280;53766;50.280;19.160;2023-04-02T08:12:38;97883.22;;;18.00;49.37
66857;BME280;53766;50.280;19.160;2023-04-02T08:15:06;97887.31;;;18.03;49.23
66857;BME280;53766;50.280;19.160;2023-04-02T08:17:34;97898.81;;;18.03;49.27
66857;BME280;53766;50.280;19.160;2023-04-02T08:20:02;97899.81;;;18.02;49.34
66857;BME280;53766;50.280;19.160;2023-04-02T08:22:31;97906.81;;;18.03;49.29
66857;BME280;53766;50.280;19.160;2023-04-02T08:25:00;97915.59;;;18.04;49.39
66857;BME280;53766;50.280;19.160;2023-04-02T08:27:27;97906.81;;;18.03;49.40
66857;BME280;53766;50.280;19.160;2023-04-02T08:29:55;97922.78;;;18.03;49.37
66857;BME280;53766;50.280;19.160;2023-04-02T08:32:22;97921.75;;;18.04;49.29
66857;BME280;53766;50.280;19.160;2023-04-02T08:34:50;97927.06;;;18.04;49.24
66857;BME280;53766;50.280;19.160;2023-04-02T08:37:19;97928.72;;;18.05;49.26
66857;BME280;53766;50.280;19.160;2023-04-02T08:39:46;97936.47;;;18.07;49.33
66857;BME280;53766;50.280;19.160;2023-04-02T08:42:56;97944.72;;;18.05;49.29
66857;BME280;53766;50.280;19.160;2023-04-02T08:47:55;97944.72;;;18.05;49.33
66857;BME280;53766;50.280;19.160;2023-04-02T08:52:57;97955.38;;;18.05;49.48
66857;BME280;53766;50.280;19.160;2023-04-02T08:55:42;97964.97;;;18.06;49.23
66857;BME280;53766;50.280;19.160;2023-04-02T09:01:02;97965.78;;;18.07;49.15
66857;BME280;53766;50.280;19.160;2023-04-02T09:03:35;97978.09;;;18.08;49.15
66857;BME280;53766;50.280;19.160;2023-04-02T09:06:06;97975.44;;;18.08;49.13
66857;BME280;53766;50.280;19.160;2023-04-02T09:08:36;97980.97;;;18.06;49.19
66857;BME280;53766;50.280;19.160;2023-04-02T09:14:19;97983.63;;;18.06;49.07
66857;BME280;53766;50.280;19.160;2023-04-02T09:16:52;97986.09;;;18.08;49.19
66857;BME280;53766;50.280;19.160;2023-04-02T09:19:40;97985.06;;;18.09;49.04
66857;BME280;53766;50.280;19.160;2023-04-02T09:22:20;98003.72;;;18.09;49.07
66857;BME280;53766;50.280;19.160;2023-04-02T09:24:57;98004.56;;;18.09;49.07
66857;BME280;53766;50.280;19.160;2023-04-02T09:27:32;98011.09;;;18.07;49.19
66857;BME280;53766;50.280;19.160;2023-04-02T09:30:05;98002.09;;;18.08;49.40
66857;BME280;53766;50.280;19.160;2023-04-02T09:35:26;98018.88;;;18.08;49.08
66857;BME280;53766;50.280;19.160;2023-04-02T09:38:29;98025.03;;;18.09;49.14
66857;BME280;53766;50.280;19.160;2023-04-02T09:41:03;98029.97;;;18.05;49.21
66857;BME280;53766;50.280;19.160;2023-04-02T09:43:34;98024.66;;;18.05;49.19
66857;BME280;53766;50.280;19.160;2023-04-02T09:48:43;98040.63;;;18.05;49.13
66857;BME280;53766;50.280;19.160;2023-04-02T09:51:21;98042.25;;;18.06;49.19
66857;BME280;53766;50.280;19.160;2023-04-02T09:54:05;98042.25;;;18.06;49.08
66857;BME280;53766;50.280;19.160;2023-04-02T09:56:35;98044.94;;;18.06;49.02
66857;BME280;53766;50.280;19.160;2023-04-02T09:59:13;98045.97;;;18.05;49.10
66857;BME280;53766;50.280;19.160;2023-04-02T10:04:41;98057.66;;;18.04;48.68
66857;BME280;53766;50.280;19.160;2023-04-02T10:12:40;98067.69;;;18.02;49.14
66857;BME280;53766;50.280;19.160;2023-04-02T10:15:16;98070.34;;;18.02;49.08
66857;BME280;53766;50.280;19.160;2023-04-02T10:17:48;98069.75;;;18.00;49.05
66857;BME280;53766;50.280;19.160;2023-04-02T10:20:21;98082.88;;;18.02;48.98
66857;BME280;53766;50.280;19.160;2023-04-02T10:22:50;98089.25;;;18.01;49.15
66857;BME280;53766;50.280;19.160;2023-04-02T10:25:20;98095.38;;;18.01;49.11
66857;BME280;53766;50.280;19.160;2023-04-02T10:33:49;98101.09;;;17.98;49.04
66857;BME280;53766;50.280;19.160;2023-04-02T10:47:04;98110.16;;;17.97;49.25
66857;BME280;53766;50.280;19.160;2023-04-02T10:49:41;98116.47;;;17.96;49.00
66857;BME280;53766;50.280;19.160;2023-04-02T10:52:30;98119.16;;;17.96;49.10
66857;BME280;53766;50.280;19.160;2023-04-02T10:55:05;98127.16;;;17.96;49.02
66857;BME280;53766;50.280;19.160;2023-04-02T10:57:39;98126.34;;;17.96;49.02
66857;BME280;53766;50.280;19.160;2023-04-02T11:07:54;98137.19;;;17.94;48.82
66857;BME280;53766;50.280;19.160;2023-04-02T11:10:24;98137.19;;;17.94;48.82
66857;BME280;53766;50.280;19.160;2023-04-02T11:13:17;98146.84;;;17.95;48.92
66857;BME280;53766;50.280;19.160;2023-04-02T11:15:47;98143.13;;;17.96;48.91
66857;BME280;53766;50.280;19.160;2023-04-02T11:18:32;98149.06;;;17.98;48.92
66857;BME280;53766;50.280;19.160;2023-04-02T11:24:03;98157.91;;;18.05;48.82
66857;BME280;53766;50.280;19.160;2023-04-02T11:26:41;98157.91;;;18.05;48.78
66857;BME280;53766;50.280;19.160;2023-04-02T11:29:29;98164.44;;;18.09;48.92
66857;BME280;53766;50.280;19.160;2023-04-02T11:37:43;98176.09;;;18.15;48.96
66857;BME280;53766;50.280;19.160;2023-04-02T11:42:43;98181.22;;;18.17;48.95
66857;BME280;53766;50.280;19.160;2023-04-02T11:50:33;98189.59;;;18.20;49.12
66857;BME280;53766;50.280;19.160;2023-04-02T11:53:20;98182.47;;;18.21;48.92
66857;BME280;53766;50.280;19.160;2023-04-02T11:56:54;98186.75;;;18.22;48.89
66857;BME280;53766;50.280;19.160;2023-04-02T12:02:38;98192.69;;;18.24;48.93
66857;BME280;53766;50.280;19.160;2023-04-02T12:05:20;98200.50;;;18.25;48.91
66857;BME280;53766;50.280;19.160;2023-04-02T12:08:07;98206.63;;;18.26;48.90
66857;BME280;53766;50.280;19.160;2023-04-02T12:10:57;98208.06;;;18.28;48.94
66857;BME280;53766;50.280;19.160;2023-04-02T12:13:47;98220.16;;;18.31;48.93
66857;BME280;53766;50.280;19.160;2023-04-02T12:16:15;98207.84;;;18.30;48.93
66857;BME280;53766;50.280;19.160;2023-04-02T12:18:46;98207.84;;;18.30;48.85
66857;BME280;53766;50.280;19.160;2023-04-02T12:21:15;98218.53;;;18.30;48.86
66857;BME280;53766;50.280;19.160;2023-04-02T12:23:45;98222.19;;;18.29;49.10
66857;BME280;53766;50.280;19.160;2023-04-02T12:26:43;98223.84;;;18.30;48.86
66857;BME280;53766;50.280;19.160;2023-04-02T12:29:21;98221.63;;;18.27;49.02
66857;BME280;53766;50.280;19.160;2023-04-02T12:31:53;98221.63;;;18.27;48.93
66857;BME280;53766;50.280;19.160;2023-04-02T12:34:23;98221.38;;;18.28;48.99
66857;BME280;53766;50.280;19.160;2023-04-02T12:36:59;98228.56;;;18.28;48.81
66857;BME280;53766;50.280;19.160;2023-04-02T12:39:31;98233.28;;;18.26;48.79
66857;BME280;53766;50.280;19.160;2023-04-02T12:41:59;98237.81;;;18.25;48.98
66857;BME280;53766;50.280;19.160;2023-04-02T12:44:29;98246.63;;;18.26;49.04
66857;BME280;53766;50.280;19.160;2023-04-02T12:46:57;98236.16;;;18.24;49.06
66857;BME280;53766;50.280;19.160;2023-04-02T12:49:37;98233.28;;;18.26;49.13
66857;BME280;53766;50.280;19.160;2023-04-02T12:52:14;98242.53;;;18.23;49.09
66857;BME280;53766;50.280;19.160;2023-04-02T12:59:55;98249.72;;;18.23;48.96
66857;BME280;53766;50.280;19.160;2023-04-02T13:02:24;98250.72;;;18.22;48.94
66857;BME280;53766;50.280;19.160;2023-04-02T13:04:55;98260.38;;;18.23;49.02
66857;BME280;53766;50.280;19.160;2023-04-02T13:07:25;98250.72;;;18.22;49.22
66857;BME280;53766;50.280;19.160;2023-04-02T13:09:55;98259.75;;;18.21;49.10
66857;BME280;53766;50.280;19.160;2023-04-02T13:12:26;98266.09;;;18.20;49.19
66857;BME280;53766;50.280;19.160;2023-04-02T13:14:58;98257.28;;;18.19;49.04
66857;BME280;53766;50.280;19.160;2023-04-02T13:17:47;98273.47;;;18.18;49.17
66857;BME280;53766;50.280;19.160;2023-04-02T13:20:28;98272.47;;;18.19;49.17
66857;BME280;53766;50.280;19.160;2023-04-02T13:22:58;98273.47;;;18.18;49.12
66857;BME280;53766;50.280;19.160;2023-04-02T13:25:29;98279.03;;;18.16;49.10
66857;BME280;53766;50.280;19.160;2023-04-02T13:27:57;98293.38;;;18.15;49.17
66857;BME280;53766;50.280;19.160;2023-04-02T13:30:27;98287.22;;;18.15;49.31
66857;BME280;53766;50.280;19.160;2023-04-02T13:32:54;98286.63;;;18.13;49.17
66857;BME280;53766;50.280;19.160;2023-04-02T13:35:23;98296.25;;;18.14;49.20
66857;BME280;53766;50.280;19.160;2023-04-02T13:37:50;98296.47;;;18.12;49.21
66857;BME280;53766;50.280;19.160;2023-04-02T13:40:18;98304.66;;;18.11;49.00
66857;BME280;53766;50.280;19.160;2023-04-02T13:42:47;98301.38;;;18.08;49.12
66857;BME280;53766;50.280;19.160;2023-04-02T13:45:23;98308.34;;;18.09;49.08
66857;BME280;53766;50.280;19.160;2023-04-02T13:47:51;98306.28;;;18.12;49.14
66857;BME280;53766;50.280;19.160;2023-04-02T13:50:21;98309.78;;;18.19;52.36
66857;BME280;53766;50.280;19.160;2023-04-02T13:52:49;98300.53;;;18.28;53.76
66857;BME280;53766;50.280;19.160;2023-04-02T13:55:20;98304.25;;;18.34;53.75
66857;BME280;53766;50.280;19.160;2023-04-02T13:57:48;98313.25;;;18.39;55.74
66857;BME280;53766;50.280;19.160;2023-04-02T14:00:17;98309.34;;;18.42;56.62
66857;BME280;53766;50.280;19.160;2023-04-02T14:02:49;98320.63;;;18.44;56.95
66857;BME280;53766;50.280;19.160;2023-04-02T14:05:33;98326.38;;;18.47;56.82
66857;BME280;53766;50.280;19.160;2023-04-02T14:08:08;98321.22;;;18.53;57.88
66857;BME280;53766;50.280;19.160;2023-04-02T14:16:41;98332.34;;;18.43;53.83
66857;BME280;53766;50.280;19.160;2023-04-02T14:19:20;98339.91;;;18.39;53.08
66857;BME280;53766;50.280;19.160;2023-04-02T14:25:28;98343.63;;;18.32;52.18
66857;BME280;53766;50.280;19.160;2023-04-02T14:33:22;98355.09;;;18.25;51.80
66857;BME280;53766;50.280;19.160;2023-04-02T14:38:40;98352.00;;;18.15;51.51
66857;BME280;53766;50.280;19.160;2023-04-02T14:41:39;98355.50;;;18.09;51.63
66857;BME280;53766;50.280;19.160;2023-04-02T14:44:13;98361.63;;;18.03;51.68
66857;BME280;53766;50.280;19.160;2023-04-02T14:46:44;98361.22;;;17.99;51.78
66857;BME280;53766;50.280;19.160;2023-04-02T14:51:56;98372.69;;;17.93;51.46
66857;BME280;53766;50.280;19.160;2023-04-02T14:54:35;98373.13;;;17.90;51.58
66857;BME280;53766;50.280;19.160;2023-04-02T15:00:02;98372.69;;;17.93;51.19
66857;BME280;53766;50.280;19.160;2023-04-02T15:02:42;98377.59;;;17.96;50.98
66857;BME280;53766;50.280;19.160;2023-04-02T15:05:19;98382.94;;;17.96;50.90
66857;BME280;53766;50.280;19.160;2023-04-02T15:08:17;98382.53;;;17.93;50.91
66857;BME280;53766;50.280;19.160;2023-04-02T15:13:58;98388.25;;;17.83;50.96
66857;BME280;53766;50.280;19.160;2023-04-02T15:16:29;98379.81;;;17.79;51.08
66857;BME280;53766;50.280;19.160;2023-04-02T15:18:59;98399.66;;;17.77;50.93
66857;BME280;53766;50.280;19.160;2023-04-02T15:24:40;98407.09;;;17.81;51.16
66857;BME280;53766;50.280;19.160;2023-04-02T15:42:15;98428.84;;;17.98;50.62
66857;BME280;53766;50.280;19.160;2023-04-02T15:50:34;98431.53;;;17.98;50.56
66857;BME280;53766;50.280;19.160;2023-04-02T15:56:35;98443.22;;;17.97;50.49
66857;BME280;53766;50.280;19.160;2023-04-02T16:01:50;98448.53;;;17.97;50.52
66857;BME280;53766;50.280;19.160;2023-04-02T16:09:51;98455.50;;;17.98;50.54
66857;BME280;53766;50.280;19.160;2023-04-02T16:12:25;98458.78;;;18.00;50.44
66857;BME280;53766;50.280;19.160;2023-04-02T16:15:06;98453.69;;;17.99;50.45
66857;BME280;53766;50.280;19.160;2023-04-02T16:17:40;98466.16;;;17.98;50.43
66857;BME280;53766;50.280;19.160;2023-04-02T16:20:27;98461.88;;;17.97;50.30
66857;BME280;53766;50.280;19.160;2023-04-02T16:29:32;98480.91;;;17.94;50.25
66857;BME280;53766;50.280;19.160;2023-04-02T16:35:24;98487.28;;;17.93;50.09
66857;BME280;53766;50.280;19.160;2023-04-02T16:51:57;98516.38;;;17.88;49.99
66857;BME280;53766;50.280;19.160;2023-04-02T16:54:30;98507.75;;;17.86;49.87
66857;BME280;53766;50.280;19.160;2023-04-02T16:57:17;98523.72;;;17.86;50.06
66857;BME280;53766;50.280;19.160;2023-04-02T16:59:52;98514.91;;;17.85;50.03
66857;BME280;53766;50.280;19.160;2023-04-02T17:02:53;98529.06;;;17.86;49.83
66857;BME280;53766;50.280;19.160;2023-04-02T17:05:57;98532.56;;;17.93;50.79
66857;BME280;53766;50.280;19.160;2023-04-02T17:09:00;98530.94;;;17.92;51.41
66857;BME280;53766;50.280;19.160;2023-04-02T17:11:40;98538.31;;;17.90;51.23
66857;BME280;53766;50.280;19.160;2023-04-02T17:16:50;98533.97;;;17.89;50.47
66857;BME280;53766;50.280;19.160;2023-04-02T17:19:19;98537.06;;;17.86;50.52
66857;BME280;53766;50.280;19.160;2023-04-02T17:21:51;98537.44;;;17.83;50.38
66857;BME280;53766;50.280;19.160;2023-04-02T17:24:26;98540.09;;;17.83;50.50
66857;BME280;53766;50.280;19.160;2023-04-02T17:29:37;98557.13;;;17.82;50.46
66857;BME280;53766;50.280;19.160;2023-04-02T17:32:13;98555.41;;;17.81;50.54
66857;BME280;53766;50.280;19.160;2023-04-02T17:34:43;98556.28;;;17.81;50.52
66857;BME280;53766;50.280;19.160;2023-04-02T17:39:48;98558.94;;;17.81;50.57
66857;BME280;53766;50.280;19.160;2023-04-02T17:42:51;98555.41;;;17.81;50.60
66857;BME280;53766;50.280;19.160;2023-04-02T17:45:31;98557.94;;;17.82;50.53
66857;BME280;53766;50.280;19.160;2023-04-02T17:48:18;98571.41;;;17.81;50.60
66857;BME280;53766;50.280;19.160;2023-04-02T17:51:36;98568.13;;;17.79;50.55
66857;BME280;53766;50.280;19.160;2023-04-02T17:59:11;98580.00;;;17.76;50.80